Time;durP1;ratioP1;P1;durP2;ratioP2;P2;SDS_P1;SDS_P2;PMS_P1;PMS_P2;Temp;Humidity;BMP_temperature;BMP_pressure;BME280_temperature;BME280_humidity;BME280_pressure;Samples;Min_cycle;Max_cycle;Signal;HPM_P1;HPM_P2
2023/08/06 00:01:58;;;;;;;4.72;4.20;;;;;;;;;;5113478;28;20076;-71
2023/08/06 00:04:24;;;;;;;5.28;4.78;;;;;;;;;;5112700;28;20040;-71
2023/08/06 00:06:50;;;;;;;6.38;4.13;;;;;;;;;;5113522;28;20106;-71
2023/08/06 00:09:16;;;;;;;5.15;4.03;;;;;;;;;;5112700;28;20106;-70
2023/08/06 00:11:43;;;;;;;6.88;4.57;;;;;;;;;;5113328;28;20535;-71
2023/08/06 00:14:09;;;;;;;6.03;4.65;;;;;;;;;;5112585;28;20071;-70
2023/08/06 00:16:35;;;;;;;4.85;4.35;;;;;;;;;;5113329;28;20024;-71
2023/08/06 00:19:02;;;;;;;4.50;4.10;;;;;;;;;;5112439;28;20068;-71
2023/08/06 00:21:28;;;;;;;6.25;4.90;;;;;;;;;;5112185;28;20417;-70
2023/08/06 00:23:54;;;;;;;7.35;4.80;;;;;;;;;;5095184;28;20024;-71
2023/08/06 00:26:20;;;;;;;4.70;4.10;;;;;;;;;;5112383;27;20036;-70
2023/08/06 00:28:46;;;;;;;5.30;4.50;;;;;;;;;;5133526;27;20019;-70
2023/08/06 00:31:12;;;;;;;6.00;4.43;;;;;;;;;;5132514;27;20030;-71
2023/08/06 00:33:38;;;;;;;8.65;4.93;;;;;;;;;;5133514;27;20026;-71
2023/08/06 00:36:04;;;;;;;4.50;3.90;;;;;;;;;;5133490;27;20027;-70
2023/08/06 00:38:30;;;;;;;5.57;4.82;;;;;;;;;;5132762;27;20027;-71
2023/08/06 00:40:55;;;;;;;5.95;4.80;;;;;;;;;;5133377;27;20015;-72
2023/08/06 00:43:21;;;;;;;5.97;4.10;;;;;;;;;;5114088;27;20020;-70
2023/08/06 00:45:48;;;;;;;4.93;3.92;;;;;;;;;;5133595;27;20031;-71
2023/08/06 00:48:14;;;;;;;5.70;4.97;;;;;;;;;;5132308;27;20068;-70
2023/08/06 00:50:40;;;;;;;4.82;4.32;;;;;;;;;;5133274;27;20019;-70
2023/08/06 00:53:06;;;;;;;5.00;4.50;;;;;;;;;;5133182;27;20023;-70
2023/08/06 00:55:33;;;;;;;5.53;4.60;;;;;;;;;;5132684;27;20030;-72
2023/08/06 00:57:59;;;;;;;4.88;4.35;;;;;;;;;;5133297;28;20030;-71
2023/08/06 01:00:25;;;;;;;4.82;4.10;;;;;;;;;;5132573;28;20026;-72
2023/08/06 01:02:51;;;;;;;4.80;3.85;;;;;;;;;;5133280;28;20027;-70
2023/08/06 01:05:17;;;;;;;5.13;3.75;;;;;;;;;;5132337;28;20568;-70
2023/08/06 01:08:02;;;;;;;4.35;3.95;;;;;;;;;;5132946;28;20023;-70
2023/08/06 01:10:46;;;;;;;6.00;4.18;;;;;;;;;;5132349;28;20027;-70
2023/08/06 01:13:19;;;;;;;6.68;3.95;;;;;;;;;;5132664;28;20023;-70
2023/08/06 01:15:47;;;;;;;4.68;4.03;;;;;;;;;;5133291;28;20031;-72
2023/08/06 01:18:13;;;;;;;6.65;3.65;;;;;;;;;;5132006;28;20476;-70
2023/08/06 01:20:39;;;;;;;5.60;3.45;;;;;;;;;;5133149;28;20020;-72
2023/08/06 01:23:05;;;;;;;4.30;3.05;;;;;;;;;;5132994;28;20241;-72
2023/08/06 01:25:35;;;;;;;4.63;3.20;;;;;;;;;;5132109;28;20033;-71
2023/08/06 01:28:21;;;;;;;3.10;2.53;;;;;;;;;;5118133;28;20047;-71
2023/08/06 01:30:47;;;;;;;5.22;2.78;;;;;;;;;;5112630;28;20030;-71
2023/08/06 01:33:16;;;;;;;3.42;3.13;;;;;;;;;;5111646;28;20032;-70
2023/08/06 01:35:43;;;;;;;3.50;2.78;;;;;;;;;;5112316;28;20024;-70
2023/08/06 01:38:09;;;;;;;7.47;2.70;;;;;;;;;;5111913;28;20023;-71
2023/08/06 01:40:35;;;;;;;3.42;2.90;;;;;;;;;;5111789;28;20384;-71
2023/08/06 01:43:01;;;;;;;3.10;2.80;;;;;;;;;;5112377;28;20020;-71
2023/08/06 01:45:27;;;;;;;3.13;2.83;;;;;;;;;;5093180;28;20380;-71
2023/08/06 01:47:53;;;;;;;6.85;2.90;;;;;;;;;;5112413;28;20102;-70
2023/08/06 01:50:19;;;;;;;2.65;2.40;;;;;;;;;;5111511;28;20128;-70
2023/08/06 01:52:45;;;;;;;2.85;2.45;;;;;;;;;;5112071;28;20098;-70
2023/08/06 01:55:11;;;;;;;3.15;2.50;;;;;;;;;;5114818;28;20511;-71
2023/08/06 01:57:37;;;;;;;3.22;2.53;;;;;;;;;;5115594;28;20027;-71
2023/08/06 02:00:03;;;;;;;3.95;2.20;;;;;;;;;;5115977;28;20026;-72
2023/08/06 02:02:29;;;;;;;2.30;1.98;;;;;;;;;;5115086;28;20028;-70
2023/08/06 02:04:55;;;;;;;4.15;2.83;;;;;;;;;;5115716;28;20106;-71
2023/08/06 02:07:21;;;;;;;6.38;2.55;;;;;;;;;;5115913;28;20024;-70
2023/08/06 02:09:47;;;;;;;2.80;2.60;;;;;;;;;;5115908;28;20031;-70
2023/08/06 02:12:13;;;;;;;4.43;2.53;;;;;;;;;;5115535;28;20015;-70
2023/08/06 02:14:39;;;;;;;2.85;2.55;;;;;;;;;;5115693;28;20464;-70
2023/08/06 02:17:05;;;;;;;3.78;2.67;;;;;;;;;;5115453;28;20024;-71
2023/08/06 02:19:31;;;;;;;5.15;3.00;;;;;;;;;;5114923;28;20027;-70
2023/08/06 02:21:57;;;;;;;5.38;2.95;;;;;;;;;;5115730;28;20024;-70
2023/08/06 02:24:23;;;;;;;4.15;2.88;;;;;;;;;;5114698;28;20024;-70
2023/08/06 02:26:51;;;;;;;2.85;2.45;;;;;;;;;;5119666;27;20070;-70
2023/08/06 02:29:17;;;;;;;4.53;2.75;;;;;;;;;;5134948;27;20019;-70
2023/08/06 02:31:42;;;;;;;4.28;3.05;;;;;;;;;;5135724;27;20029;-71
2023/08/06 02:34:08;;;;;;;4.07;2.97;;;;;;;;;;5136055;27;20019;-71
2023/08/06 02:36:34;;;;;;;3.30;3.00;;;;;;;;;;5134885;27;20075;-70
2023/08/06 02:39:00;;;;;;;5.00;3.13;;;;;;;;;;5135354;27;20106;-71
2023/08/06 02:41:26;;;;;;;5.75;2.90;;;;;;;;;;5134754;27;20027;-70
2023/08/06 02:43:53;;;;;;;7.07;2.95;;;;;;;;;;5135279;27;20072;-70
2023/08/06 02:46:19;;;;;;;5.55;3.15;;;;;;;;;;5134488;27;20033;-70
2023/08/06 02:48:45;;;;;;;3.58;3.03;;;;;;;;;;5135439;27;20019;-70
2023/08/06 02:51:11;;;;;;;5.07;3.30;;;;;;;;;;5135361;27;20516;-70
2023/08/06 02:53:37;;;;;;;5.50;3.40;;;;;;;;;;5134529;27;20023;-70
2023/08/06 02:56:03;;;;;;;3.70;3.40;;;;;;;;;;5135292;27;20032;-71
2023/08/06 02:58:29;;;;;;;3.22;2.92;;;;;;;;;;5134334;27;20057;-70
2023/08/06 03:01:02;;;;;;;4.63;3.28;;;;;;;;;;5135253;27;20027;-70
2023/08/06 03:03:28;;;;;;;5.13;3.03;;;;;;;;;;5134375;27;20022;-70
2023/08/06 03:05:54;;;;;;;5.53;2.92;;;;;;;;;;5134316;27;20038;-70
2023/08/06 03:08:23;;;;;;;2.78;2.50;;;;;;;;;;5133935;27;20019;-70
2023/08/06 03:10:50;;;;;;;5.38;3.00;;;;;;;;;;5135062;27;20023;-71
2023/08/06 03:13:16;;;;;;;4.65;2.50;;;;;;;;;;5134824;27;20027;-70
2023/08/06 03:15:42;;;;;;;4.45;2.45;;;;;;;;;;5134782;27;20026;-71
2023/08/06 03:18:08;;;;;;;3.13;2.83;;;;;;;;;;5134803;27;20016;-71
2023/08/06 03:20:34;;;;;;;4.10;2.25;;;;;;;;;;5133995;27;20773;-70
2023/08/06 03:23:00;;;;;;;4.25;2.45;;;;;;;;;;5134893;27;20019;-70
2023/08/06 03:25:26;;;;;;;4.20;2.38;;;;;;;;;;5133803;27;20456;-70
2023/08/06 03:27:52;;;;;;;5.85;2.75;;;;;;;;;;5120563;27;20031;-71
2023/08/06 03:30:18;;;;;;;7.07;2.28;;;;;;;;;;5113473;28;20151;-71
2023/08/06 03:32:44;;;;;;;3.38;2.17;;;;;;;;;;5113838;28;20042;-71
2023/08/06 03:35:10;;;;;;;3.75;2.42;;;;;;;;;;5113939;28;20032;-71
2023/08/06 03:37:36;;;;;;;2.78;2.40;;;;;;;;;;5112868;28;20035;-71
2023/08/06 03:40:02;;;;;;;3.65;2.45;;;;;;;;;;5113916;28;20027;-71
2023/08/06 03:42:28;;;;;;;2.30;2.10;;;;;;;;;;5113125;28;20380;-71
2023/08/06 03:44:54;;;;;;;4.57;2.20;;;;;;;;;;5121615;28;20024;-72
2023/08/06 03:47:20;;;;;;;4.68;2.90;;;;;;;;;;5124315;28;20051;-71
2023/08/06 03:49:46;;;;;;;3.63;2.60;;;;;;;;;;5125015;28;20100;-73
2023/08/06 03:52:12;;;;;;;6.13;2.53;;;;;;;;;;5125828;28;20047;-72
2023/08/06 03:54:39;;;;;;;2.58;2.17;;;;;;;;;;5125377;28;20625;-69
2023/08/06 03:57:05;;;;;;;4.55;2.67;;;;;;;;;;5126857;28;20020;-70
2023/08/06 03:59:31;;;;;;;3.45;2.03;;;;;;;;;;5121404;28;20032;-71
2023/08/06 04:01:57;;;;;;;3.45;2.30;;;;;;;;;;5114692;28;20024;-71
2023/08/06 04:04:23;;;;;;;3.10;2.47;;;;;;;;;;5113399;28;20035;-71
2023/08/06 04:06:49;;;;;;;3.78;2.00;;;;;;;;;;5113586;28;20430;-71
2023/08/06 04:09:15;;;;;;;4.22;2.65;;;;;;;;;;5113444;28;20027;-71
2023/08/06 04:11:40;;;;;;;5.40;2.58;;;;;;;;;;5112560;28;20031;-72
2023/08/06 04:14:06;;;;;;;2.50;2.13;;;;;;;;;;5113449;28;20027;-71
2023/08/06 04:16:33;;;;;;;6.10;2.90;;;;;;;;;;5111998;28;20103;-71
2023/08/06 04:18:58;;;;;;;3.50;2.45;;;;;;;;;;5113453;28;20019;-72
2023/08/06 04:21:24;;;;;;;4.30;2.28;;;;;;;;;;5112397;28;20015;-71
2023/08/06 04:23:50;;;;;;;2.95;2.20;;;;;;;;;;5112938;28;20480;-71
2023/08/06 04:26:16;;;;;;;4.28;2.35;;;;;;;;;;5112752;28;20035;-71
2023/08/06 04:28:42;;;;;;;4.00;2.55;;;;;;;;;;5132848;27;20039;-71
2023/08/06 04:31:08;;;;;;;6.03;2.30;;;;;;;;;;5133406;27;20015;-71
2023/08/06 04:33:34;;;;;;;6.07;2.80;;;;;;;;;;5133184;27;20487;-71
2023/08/06 04:36:00;;;;;;;3.60;2.10;;;;;;;;;;5133910;27;20031;-71
2023/08/06 04:38:27;;;;;;;3.03;1.85;;;;;;;;;;5132834;27;20023;-71
2023/08/06 04:40:53;;;;;;;3.40;2.30;;;;;;;;;;5133353;27;20380;-72
2023/08/06 04:43:19;;;;;;;3.30;2.60;;;;;;;;;;5133476;27;20075;-71
2023/08/06 04:45:48;;;;;;;4.90;2.35;;;;;;;;;;5132758;27;20118;-71
2023/08/06 04:48:14;;;;;;;4.43;2.67;;;;;;;;;;5133573;27;20023;-71
2023/08/06 04:50:44;;;;;;;4.28;2.58;;;;;;;;;;5132623;27;20045;-71
2023/08/06 04:53:11;;;;;;;3.95;2.80;;;;;;;;;;5133492;27;20030;-71
2023/08/06 04:55:37;;;;;;;5.95;2.78;;;;;;;;;;5132541;27;20054;-71
2023/08/06 04:58:03;;;;;;;3.33;2.42;;;;;;;;;;5133308;28;20031;-71
2023/08/06 05:00:29;;;;;;;5.03;2.28;;;;;;;;;;5132305;28;20046;-71
2023/08/06 05:02:55;;;;;;;6.78;1.73;;;;;;;;;;5133270;28;20028;-71
2023/08/06 05:05:21;;;;;;;3.28;1.83;;;;;;;;;;5133036;28;20031;-71
2023/08/06 05:07:49;;;;;;;3.28;1.88;;;;;;;;;;5132411;28;20055;-71
2023/08/06 05:10:15;;;;;;;2.08;1.55;;;;;;;;;;5114817;28;20442;-71
2023/08/06 05:12:42;;;;;;;4.60;1.75;;;;;;;;;;5132333;28;20061;-71
2023/08/06 05:15:08;;;;;;;3.88;1.65;;;;;;;;;;5133048;28;20031;-71
2023/08/06 05:17:34;;;;;;;1.98;1.15;;;;;;;;;;5132032;28;20023;-71
2023/08/06 05:20:00;;;;;;;2.10;1.25;;;;;;;;;;5133240;28;20019;-71
2023/08/06 05:22:26;;;;;;;2.40;1.30;;;;;;;;;;5132441;28;20460;-71
2023/08/06 05:24:52;;;;;;;3.03;1.80;;;;;;;;;;5132884;28;20035;-71
2023/08/06 05:27:21;;;;;;;3.08;1.25;;;;;;;;;;5124308;28;20043;-71
2023/08/06 05:29:48;;;;;;;3.53;1.60;;;;;;;;;;5115522;28;20354;-71
2023/08/06 05:32:14;;;;;;;3.35;1.40;;;;;;;;;;5116473;28;20153;-72
2023/08/06 05:34:41;;;;;;;2.28;1.40;;;;;;;;;;5115577;28;20454;-72
2023/08/06 05:37:07;;;;;;;3.92;1.25;;;;;;;;;;5116488;28;20024;-71
2023/08/06 05:39:33;;;;;;;2.00;1.23;;;;;;;;;;5115365;28;20047;-71
2023/08/06 05:41:59;;;;;;;4.38;1.50;;;;;;;;;;5116214;28;20464;-71
2023/08/06 05:44:25;;;;;;;1.92;1.30;;;;;;;;;;5115764;28;20103;-71
2023/08/06 05:46:53;;;;;;;2.40;1.50;;;;;;;;;;5115780;28;20448;-71
2023/08/06 05:49:19;;;;;;;3.20;1.20;;;;;;;;;;5115984;28;20023;-71
2023/08/06 05:51:45;;;;;;;3.33;1.10;;;;;;;;;;5115377;28;20445;-71
2023/08/06 05:54:11;;;;;;;2.63;1.38;;;;;;;;;;5115685;28;20054;-71
2023/08/06 05:56:37;;;;;;;3.78;0.90;;;;;;;;;;5115214;28;20016;-71
2023/08/06 05:59:03;;;;;;;2.33;0.73;;;;;;;;;;5115717;28;20015;-71
2023/08/06 06:01:28;;;;;;;2.40;0.80;;;;;;;;;;5115554;28;20103;-71
2023/08/06 06:03:54;;;;;;;1.02;0.63;;;;;;;;;;5115740;28;20024;-71
2023/08/06 06:06:21;;;;;;;1.40;0.82;;;;;;;;;;5115459;28;20115;-72
2023/08/06 06:08:47;;;;;;;2.78;0.90;;;;;;;;;;5115053;28;20019;-70
2023/08/06 06:11:13;;;;;;;2.22;1.00;;;;;;;;;;5115742;28;20020;-71
2023/08/06 06:13:39;;;;;;;3.13;0.90;;;;;;;;;;5115204;28;20035;-71
2023/08/06 06:16:05;;;;;;;1.08;0.65;;;;;;;;;;5097595;28;20079;-71
2023/08/06 06:18:31;;;;;;;1.70;0.50;;;;;;;;;;5113656;28;20030;-70
2023/08/06 06:20:57;;;;;;;2.65;0.75;;;;;;;;;;5115555;28;20141;-71
2023/08/06 06:23:23;;;;;;;2.25;0.50;;;;;;;;;;5115604;28;20381;-71
2023/08/06 06:25:51;;;;;;;2.65;0.63;;;;;;;;;;5114574;28;20020;-71
2023/08/06 06:28:17;;;;;;;4.53;0.60;;;;;;;;;;5132452;27;20047;-71
2023/08/06 06:30:43;;;;;;;2.90;0.40;;;;;;;;;;5135127;27;20475;-70
2023/08/06 06:33:09;;;;;;;2.28;0.40;;;;;;;;;;5136162;27;20035;-71
2023/08/06 06:35:35;;;;;;;2.20;0.65;;;;;;;;;;5135219;27;20031;-71
2023/08/06 06:38:02;;;;;;;1.58;0.63;;;;;;;;;;5135499;27;20482;-71
2023/08/06 06:40:28;;;;;;;2.90;0.55;;;;;;;;;;5134389;27;20034;-70
2023/08/06 06:42:54;;;;;;;3.47;1.00;;;;;;;;;;5135351;27;20058;-71
2023/08/06 06:45:20;;;;;;;1.70;0.68;;;;;;;;;;5135538;27;20059;-72
2023/08/06 06:47:46;;;;;;;1.80;0.70;;;;;;;;;;5134680;27;20027;-71
2023/08/06 06:50:12;;;;;;;1.95;0.57;;;;;;;;;;5135655;27;20023;-71
2023/08/06 06:52:38;;;;;;;2.33;0.52;;;;;;;;;;5134459;27;20027;-71
2023/08/06 06:55:04;;;;;;;1.92;0.50;;;;;;;;;;5135354;27;20029;-71
2023/08/06 06:57:30;;;;;;;1.70;0.70;;;;;;;;;;5135984;27;20068;-71
2023/08/06 06:59:56;;;;;;;2.10;0.77;;;;;;;;;;5135018;27;20023;-71
2023/08/06 07:02:22;;;;;;;2.47;0.70;;;;;;;;;;5135227;27;20038;-71
2023/08/06 07:04:48;;;;;;;2.65;0.57;;;;;;;;;;5134190;27;20035;-71
2023/08/06 07:07:14;;;;;;;0.75;0.57;;;;;;;;;;5135220;27;20024;-70
2023/08/06 07:09:40;;;;;;;1.35;0.68;;;;;;;;;;5115935;27;20023;-70
2023/08/06 07:12:06;;;;;;;1.05;0.70;;;;;;;;;;5135127;27;20046;-71
2023/08/06 07:14:32;;;;;;;1.30;0.70;;;;;;;;;;5134372;27;20109;-70
2023/08/06 07:16:58;;;;;;;2.08;0.57;;;;;;;;;;5134742;27;20015;-71
2023/08/06 07:19:24;;;;;;;1.67;0.52;;;;;;;;;;5135177;27;20027;-71
2023/08/06 07:21:50;;;;;;;2.67;0.55;;;;;;;;;;5134236;27;20079;-70
2023/08/06 07:24:16;;;;;;;1.15;0.50;;;;;;;;;;5134788;27;20420;-70
2023/08/06 07:26:42;;;;;;;1.23;0.50;;;;;;;;;;5130062;27;20039;-70
2023/08/06 07:29:08;;;;;;;1.85;0.73;;;;;;;;;;5114542;28;20353;-70
2023/08/06 07:31:34;;;;;;;1.25;0.50;;;;;;;;;;5113356;28;20161;-70
2023/08/06 07:34:00;;;;;;;1.83;0.98;;;;;;;;;;5114128;28;20476;-70
2023/08/06 07:36:27;;;;;;;1.17;0.70;;;;;;;;;;5114384;28;20106;-70
2023/08/06 07:38:56;;;;;;;1.35;0.40;;;;;;;;;;5113328;28;20024;-70
2023/08/06 07:41:25;;;;;;;0.98;0.45;;;;;;;;;;5113916;28;20035;-70
2023/08/06 07:43:51;;;;;;;2.75;0.50;;;;;;;;;;5112748;28;20069;-70
2023/08/06 07:46:17;;;;;;;0.40;0.40;;;;;;;;;;5113830;28;20023;-70
2023/08/06 07:48:43;;;;;;;1.48;0.63;;;;;;;;;;5113036;28;20020;-70
2023/08/06 07:51:10;;;;;;;0.60;0.20;;;;;;;;;;5113683;28;20042;-71
2023/08/06 07:53:36;;;;;;;1.65;0.40;;;;;;;;;;5112853;28;20055;-71
2023/08/06 07:56:02;;;;;;;0.28;0.28;;;;;;;;;;5113449;28;20515;-72
2023/08/06 07:58:29;;;;;;;0.63;0.28;;;;;;;;;;5113629;28;20027;-71
2023/08/06 08:00:55;;;;;;;0.32;0.30;;;;;;;;;;5112711;28;20794;-71
2023/08/06 08:03:21;;;;;;;0.10;0.10;;;;;;;;;;5114021;28;20024;-71
2023/08/06 08:05:47;;;;;;;1.08;0.30;;;;;;;;;;5112786;28;20556;-72
2023/08/06 08:08:13;;;;;;;0.45;0.22;;;;;;;;;;5113540;28;20027;-71
2023/08/06 08:10:39;;;;;;;1.08;0.30;;;;;;;;;;5112602;28;20099;-71
2023/08/06 08:13:06;;;;;;;1.38;0.35;;;;;;;;;;5113439;28;20024;-71
2023/08/06 08:15:32;;;;;;;0.63;0.20;;;;;;;;;;5113291;28;20633;-71
2023/08/06 08:17:59;;;;;;;0.50;0.20;;;;;;;;;;5112772;28;20069;-72
2023/08/06 08:20:31;;;;;;;0.85;0.20;;;;;;;;;;5113376;28;20023;-72
2023/08/06 08:22:57;;;;;;;0.88;0.20;;;;;;;;;;5112422;28;20398;-71
2023/08/06 08:25:23;;;;;;;1.38;0.30;;;;;;;;;;5112821;28;20028;-71
2023/08/06 08:27:49;;;;;;;1.55;0.10;;;;;;;;;;5125267;27;20100;-71
2023/08/06 08:30:15;;;;;;;0.10;0.08;;;;;;;;;;5133765;27;20062;-71
2023/08/06 08:32:42;;;;;;;3.08;0.10;;;;;;;;;;5132693;27;20105;-71
2023/08/06 08:35:08;;;;;;;0.80;0.10;;;;;;;;;;5133587;27;20468;-71
2023/08/06 08:37:34;;;;;;;0.15;0.15;;;;;;;;;;5134019;27;20131;-71
2023/08/06 08:40:00;;;;;;;0.32;0.10;;;;;;;;;;5134240;27;20047;-71
2023/08/06 08:42:26;;;;;;;0.10;0.10;;;;;;;;;;5133935;27;20026;-71
2023/08/06 08:44:53;;;;;;;0.20;0.20;;;;;;;;;;5133166;27;20095;-70
2023/08/06 08:47:19;;;;;;;0.95;0.20;;;;;;;;;;5133126;27;20028;-71
2023/08/06 08:49:47;;;;;;;0.98;0.17;;;;;;;;;;5132508;27;20092;-70
2023/08/06 08:52:15;;;;;;;0.38;0.25;;;;;;;;;;5132940;27;20019;-70
2023/08/06 08:54:43;;;;;;;2.28;0.10;;;;;;;;;;5132562;27;20034;-72
2023/08/06 08:57:09;;;;;;;0.50;0.20;;;;;;;;;;5133226;27;20479;-73
2023/08/06 08:59:35;;;;;;;0.63;0.17;;;;;;;;;;5133200;28;20027;-71
2023/08/06 09:02:01;;;;;;;0.32;0.10;;;;;;;;;;5133168;27;20030;-71
2023/08/06 09:04:29;;;;;;;1.00;0.10;;;;;;;;;;5139827;27;20180;-71
2023/08/06 09:06:56;;;;;;;0.52;0.20;;;;;;;;;;5139238;27;20348;-71
2023/08/06 09:09:38;;;;;;;1.02;0.28;;;;;;;;;;5140114;27;20474;-72
2023/08/06 09:12:11;;;;;;;0.13;0.10;;;;;;;;;;5139354;27;20107;-71
2023/08/06 09:14:37;;;;;;;0.73;0.20;;;;;;;;;;5139728;27;20045;-70
2023/08/06 09:17:05;;;;;;;0.43;0.10;;;;;;;;;;5139749;27;20015;-70
2023/08/06 09:19:31;;;;;;;0.52;0.10;;;;;;;;;;5139768;27;20102;-71
2023/08/06 09:21:58;;;;;;;0.17;0.17;;;;;;;;;;5139137;27;20023;-71
2023/08/06 09:24:24;;;;;;;0.88;0.20;;;;;;;;;;5139779;27;20033;-70
2023/08/06 09:26:50;;;;;;;0.20;0.10;;;;;;;;;;5134044;27;20046;-71
2023/08/06 09:29:16;;;;;;;0.40;0.20;;;;;;;;;;5119258;28;20058;-70
2023/08/06 09:31:49;;;;;;;0.57;0.10;;;;;;;;;;5118282;28;20027;-69
2023/08/06 09:34:18;;;;;;;0.63;0.10;;;;;;;;;;5119052;28;20372;-70
2023/08/06 09:36:47;;;;;;;0.10;0.10;;;;;;;;;;5118306;28;20034;-70
2023/08/06 09:39:17;;;;;;;0.15;0.08;;;;;;;;;;5119225;28;20027;-70
2023/08/06 09:41:44;;;;;;;0.43;0.10;;;;;;;;;;5118297;28;20378;-70
2023/08/06 09:44:25;;;;;;;0.95;0.15;;;;;;;;;;5100689;28;20050;-71
2023/08/06 09:47:01;;;;;;;0.20;0.20;;;;;;;;;;5118082;28;20499;-70
2023/08/06 09:49:28;;;;;;;0.10;0.10;;;;;;;;;;5118816;27;20115;-70
2023/08/06 09:51:55;;;;;;;0.43;0.10;;;;;;;;;;5118290;28;20126;-70
2023/08/06 09:54:26;;;;;;;0.60;0.20;;;;;;;;;;5118815;28;20081;-71
2023/08/06 09:56:52;;;;;;;0.10;0.10;;;;;;;;;;5118097;28;20055;-70
2023/08/06 09:59:19;;;;;;;1.33;0.10;;;;;;;;;;5119154;28;20038;-71
2023/08/06 10:01:45;;;;;;;0.17;0.15;;;;;;;;;;5117995;28;20372;-70
2023/08/06 10:04:15;;;;;;;1.35;0.20;;;;;;;;;;5100387;28;20023;-72
2023/08/06 10:06:42;;;;;;;0.15;0.15;;;;;;;;;;5117980;28;20027;-70
2023/08/06 10:09:09;;;;;;;0.47;0.25;;;;;;;;;;5118736;28;20038;-71
2023/08/06 10:11:35;;;;;;;0.38;0.10;;;;;;;;;;5118767;28;20024;-71
2023/08/06 10:14:07;;;;;;;0.57;0.45;;;;;;;;;;5116019;28;20547;-71
2023/08/06 10:16:34;;;;;;;0.68;0.30;;;;;;;;;;5115784;28;20026;-71
2023/08/06 10:19:01;;;;;;;0.20;0.20;;;;;;;;;;5114945;28;20874;-70
2023/08/06 10:21:27;;;;;;;0.30;0.20;;;;;;;;;;5115943;28;20456;-71
2023/08/06 10:23:55;;;;;;;0.52;0.10;;;;;;;;;;5114708;28;20063;-70
2023/08/06 10:26:21;;;;;;;1.02;0.30;;;;;;;;;;5115585;27;20030;-70
2023/08/06 10:28:47;;;;;;;2.28;0.75;;;;;;;;;;5135132;27;20021;-70
2023/08/06 10:31:13;;;;;;;0.40;0.10;;;;;;;;;;5117475;27;20112;-70
2023/08/06 10:33:43;;;;;;;0.20;0.20;;;;;;;;;;5135817;27;20019;-70
2023/08/06 10:36:09;;;;;;;0.85;0.30;;;;;;;;;;5135383;27;20050;-71
2023/08/06 10:38:37;;;;;;;0.57;0.20;;;;;;;;;;5136209;27;20383;-71
2023/08/06 10:41:04;;;;;;;0.40;0.10;;;;;;;;;;5135045;27;20026;-71
2023/08/06 10:43:41;;;;;;;1.73;0.20;;;;;;;;;;5135765;27;20019;-72
2023/08/06 10:46:10;;;;;;;0.63;0.20;;;;;;;;;;5134913;27;20487;-71
2023/08/06 10:48:45;;;;;;;0.98;0.20;;;;;;;;;;5135818;27;20023;-72
2023/08/06 10:51:13;;;;;;;1.65;0.35;;;;;;;;;;5135903;27;20031;-71
2023/08/06 10:53:42;;;;;;;0.73;0.30;;;;;;;;;;5142189;27;20044;-71
2023/08/06 10:56:15;;;;;;;1.65;0.20;;;;;;;;;;5147438;27;20131;-71
2023/08/06 10:58:41;;;;;;;1.17;0.50;;;;;;;;;;5148804;27;20027;-72
2023/08/06 11:01:07;;;;;;;0.35;0.10;;;;;;;;;;5147868;27;20019;-72
2023/08/06 11:03:34;;;;;;;0.30;0.20;;;;;;;;;;5148621;27;20019;-72
2023/08/06 11:06:00;;;;;;;0.20;0.20;;;;;;;;;;5141062;27;20027;-72
2023/08/06 11:08:30;;;;;;;0.40;0.30;;;;;;;;;;5136012;27;20015;-71
2023/08/06 11:10:56;;;;;;;2.20;0.30;;;;;;;;;;5134522;27;20023;-72
2023/08/06 11:13:22;;;;;;;0.22;0.20;;;;;;;;;;5135479;27;20019;-72
2023/08/06 11:15:48;;;;;;;0.40;0.22;;;;;;;;;;5134739;27;20169;-71
2023/08/06 11:18:14;;;;;;;0.28;0.10;;;;;;;;;;5135267;27;20055;-71
2023/08/06 11:20:40;;;;;;;0.52;0.20;;;;;;;;;;5135214;27;20023;-72
2023/08/06 11:23:06;;;;;;;0.30;0.30;;;;;;;;;;5134419;27;20026;-71
2023/08/06 11:25:37;;;;;;;1.23;0.40;;;;;;;;;;5134521;27;20031;-71
2023/08/06 11:28:04;;;;;;;0.10;0.10;;;;;;;;;;5118437;27;20105;-70
2023/08/06 11:30:30;;;;;;;0.30;0.30;;;;;;;;;;5114360;28;20096;-71
2023/08/06 11:32:57;;;;;;;1.08;0.30;;;;;;;;;;5113471;28;20027;-70
2023/08/06 11:35:23;;;;;;;0.30;0.30;;;;;;;;;;5114116;28;20357;-71
2023/08/06 11:37:49;;;;;;;1.10;0.40;;;;;;;;;;5113354;28;20026;-70
2023/08/06 11:40:18;;;;;;;0.43;0.40;;;;;;;;;;5114013;28;20426;-70
2023/08/06 11:42:44;;;;;;;0.55;0.55;;;;;;;;;;5113921;28;20023;-71
2023/08/06 11:45:10;;;;;;;0.70;0.68;;;;;;;;;;5113044;28;20038;-71
2023/08/06 11:47:40;;;;;;;1.30;0.80;;;;;;;;;;5113812;28;20376;-71
2023/08/06 11:50:06;;;;;;;0.50;0.45;;;;;;;;;;5113048;28;20027;-72
2023/08/06 11:52:32;;;;;;;1.25;0.50;;;;;;;;;;5113708;28;20034;-71
2023/08/06 11:55:02;;;;;;;1.08;0.88;;;;;;;;;;5112819;28;20031;-71
2023/08/06 11:57:32;;;;;;;1.00;0.65;;;;;;;;;;5113484;28;20480;-70
2023/08/06 11:59:58;;;;;;;2.60;0.70;;;;;;;;;;5113041;28;20042;-70
2023/08/06 12:02:27;;;;;;;0.88;0.60;;;;;;;;;;5113546;28;20494;-71
2023/08/06 12:05:04;;;;;;;1.50;0.55;;;;;;;;;;5112543;28;20035;-70
2023/08/06 12:07:31;;;;;;;1.27;0.80;;;;;;;;;;5113426;28;20026;-71
2023/08/06 12:09:57;;;;;;;2.60;0.95;;;;;;;;;;5112599;28;20023;-71
2023/08/06 12:12:23;;;;;;;1.60;0.70;;;;;;;;;;5113239;28;20473;-72
2023/08/06 12:14:49;;;;;;;0.70;0.70;;;;;;;;;;5112623;28;20468;-70
2023/08/06 12:17:15;;;;;;;0.95;0.85;;;;;;;;;;5112863;28;20022;-71
2023/08/06 12:19:41;;;;;;;1.50;0.95;;;;;;;;;;5112617;28;20024;-71
2023/08/06 12:22:08;;;;;;;1.52;0.80;;;;;;;;;;5112254;28;20023;-70
2023/08/06 12:24:34;;;;;;;2.22;0.70;;;;;;;;;;5113092;28;20043;-71
2023/08/06 12:27:02;;;;;;;0.93;0.80;;;;;;;;;;5118245;27;20043;-70
2023/08/06 12:29:28;;;;;;;1.38;0.80;;;;;;;;;;5133549;27;20023;-71
2023/08/06 12:31:54;;;;;;;3.00;1.10;;;;;;;;;;5132663;27;20486;-70
2023/08/06 12:34:20;;;;;;;2.28;1.00;;;;;;;;;;5133298;27;20460;-70
2023/08/06 12:36:46;;;;;;;1.80;1.00;;;;;;;;;;5133090;27;20371;-71
2023/08/06 12:39:12;;;;;;;1.98;1.08;;;;;;;;;;5132230;27;20070;-70
2023/08/06 12:41:38;;;;;;;1.10;0.77;;;;;;;;;;5133400;27;20374;-71
2023/08/06 12:44:04;;;;;;;1.42;0.73;;;;;;;;;;5132536;27;20137;-71
2023/08/06 12:46:31;;;;;;;1.20;0.77;;;;;;;;;;5133054;27;20027;-71
2023/08/06 12:48:57;;;;;;;1.00;0.85;;;;;;;;;;5132391;27;20031;-70
2023/08/06 12:51:23;;;;;;;1.70;1.05;;;;;;;;;;5133455;27;20024;-71
2023/08/06 12:53:49;;;;;;;1.08;0.82;;;;;;;;;;5133300;27;20369;-70
2023/08/06 12:56:15;;;;;;;0.82;0.50;;;;;;;;;;5132978;27;20019;-71
2023/08/06 12:58:42;;;;;;;2.20;0.88;;;;;;;;;;5133093;27;20019;-72
2023/08/06 13:01:08;;;;;;;1.58;0.68;;;;;;;;;;5132311;28;20122;-71
2023/08/06 13:03:34;;;;;;;0.40;0.40;;;;;;;;;;5132907;28;20046;-72
2023/08/06 13:06:00;;;;;;;0.80;0.60;;;;;;;;;;5132075;28;20162;-71
2023/08/06 13:08:26;;;;;;;0.70;0.60;;;;;;;;;;5133278;28;20023;-71
2023/08/06 13:10:52;;;;;;;2.25;0.90;;;;;;;;;;5132831;28;20489;-70
2023/08/06 13:13:18;;;;;;;0.98;0.88;;;;;;;;;;5134769;28;20031;-71
2023/08/06 13:15:44;;;;;;;1.98;0.95;;;;;;;;;;5133311;28;20023;-71
2023/08/06 13:18:10;;;;;;;0.45;0.40;;;;;;;;;;5132419;28;20030;-71
2023/08/06 13:20:42;;;;;;;0.95;0.75;;;;;;;;;;5133241;28;20055;-71
2023/08/06 13:23:08;;;;;;;0.75;0.70;;;;;;;;;;5132382;28;20491;-71
2023/08/06 13:25:36;;;;;;;1.33;0.70;;;;;;;;;;5132737;28;20032;-71
2023/08/06 13:28:03;;;;;;;0.98;0.80;;;;;;;;;;5117059;28;20051;-71
2023/08/06 13:30:29;;;;;;;1.45;0.80;;;;;;;;;;5112376;28;20024;-71
2023/08/06 13:32:56;;;;;;;1.27;0.70;;;;;;;;;;5111514;28;20024;-71
2023/08/06 13:35:22;;;;;;;2.17;0.57;;;;;;;;;;5112313;28;20477;-71
2023/08/06 13:37:48;;;;;;;2.17;0.70;;;;;;;;;;5094148;28;20032;-72
2023/08/06 13:40:14;;;;;;;0.68;0.57;;;;;;;;;;5111733;28;20012;-71
2023/08/06 13:42:40;;;;;;;3.50;0.80;;;;;;;;;;5112413;28;20019;-71
2023/08/06 13:45:07;;;;;;;0.73;0.35;;;;;;;;;;5111067;28;20038;-70
2023/08/06 13:47:33;;;;;;;0.80;0.40;;;;;;;;;;5112224;28;20020;-71
2023/08/06 13:49:59;;;;;;;0.63;0.40;;;;;;;;;;5114393;28;20023;-70
2023/08/06 13:52:28;;;;;;;1.00;0.60;;;;;;;;;;5115989;28;20107;-71
2023/08/06 13:54:54;;;;;;;0.65;0.40;;;;;;;;;;5115530;28;20023;-70
2023/08/06 13:57:20;;;;;;;0.77;0.68;;;;;;;;;;5115291;28;20039;-71
2023/08/06 13:59:46;;;;;;;1.17;0.50;;;;;;;;;;5115943;28;20136;-71
2023/08/06 14:02:12;;;;;;;1.60;0.52;;;;;;;;;;5115222;28;20060;-71
2023/08/06 14:04:39;;;;;;;0.85;0.47;;;;;;;;;;5115681;28;20473;-71
2023/08/06 14:07:05;;;;;;;0.98;0.50;;;;;;;;;;5114926;28;20030;-71
2023/08/06 14:09:31;;;;;;;1.00;0.50;;;;;;;;;;5115731;28;20023;-71
2023/08/06 14:11:57;;;;;;;1.27;0.50;;;;;;;;;;5115118;28;20633;-70
2023/08/06 14:14:26;;;;;;;2.10;0.55;;;;;;;;;;5115773;28;20081;-70
2023/08/06 14:16:55;;;;;;;1.33;0.50;;;;;;;;;;5115468;28;20019;-70
2023/08/06 14:19:21;;;;;;;0.93;0.50;;;;;;;;;;5096454;28;20020;-71
2023/08/06 14:21:47;;;;;;;0.30;0.30;;;;;;;;;;5115576;28;20019;-72
2023/08/06 14:24:13;;;;;;;1.38;0.40;;;;;;;;;;5114553;28;20113;-70
2023/08/06 14:26:39;;;;;;;1.55;0.50;;;;;;;;;;5118353;27;20046;-70
2023/08/06 14:29:05;;;;;;;1.85;0.50;;;;;;;;;;5135195;27;20121;-70
2023/08/06 14:31:31;;;;;;;0.88;0.43;;;;;;;;;;5135875;27;20102;-70
2023/08/06 14:33:57;;;;;;;0.80;0.40;;;;;;;;;;5135092;27;20106;-70
2023/08/06 14:36:23;;;;;;;4.30;0.55;;;;;;;;;;5135193;27;20103;-71
2023/08/06 14:38:49;;;;;;;0.43;0.43;;;;;;;;;;5117341;27;20019;-71
2023/08/06 14:41:15;;;;;;;0.98;0.70;;;;;;;;;;5134952;27;20046;-71